createdAt,value
2019-01-13T00:02:01.606Z,3.40
2019-01-13T00:04:31.950Z,3.50
2019-01-13T00:07:02.361Z,3.60
2019-01-13T00:09:34.675Z,3.60
2019-01-13T00:12:05.291Z,3.70
2019-01-13T00:14:35.869Z,3.70
2019-01-13T00:17:06.390Z,3.80
2019-01-13T00:19:37.802Z,3.80
2019-01-13T00:22:10.620Z,3.80
2019-01-13T00:24:40.903Z,3.90
2019-01-13T00:27:11.406Z,3.90
2019-01-13T00:29:41.780Z,3.90
2019-01-13T00:32:13.233Z,3.90
2019-01-13T00:34:43.522Z,3.90
2019-01-13T00:37:13.986Z,3.90
2019-01-13T00:39:44.328Z,3.90
2019-01-13T00:44:44.598Z,4.00
2019-01-13T00:47:15.079Z,4.00
2019-01-13T00:49:45.493Z,4.00
2019-01-13T00:52:15.842Z,4.00
2019-01-13T00:54:46.251Z,4.00
2019-01-13T00:57:16.557Z,4.00
2019-01-13T00:59:46.915Z,4.00
2019-01-13T01:02:17.240Z,4.10
2019-01-13T01:04:47.603Z,4.10
2019-01-13T01:07:18.999Z,4.10
2019-01-13T01:09:49.416Z,4.10
2019-01-13T01:12:19.609Z,4.10
2019-01-13T01:14:50.010Z,4.10
2019-01-13T01:17:20.476Z,4.10
2019-01-13T01:19:50.867Z,4.10
2019-01-13T01:22:21.257Z,4.10
2019-01-13T01:24:51.644Z,4.10
2019-01-13T01:27:21.966Z,4.10
2019-01-13T01:29:52.311Z,4.10
2019-01-13T01:32:22.684Z,4.10
2019-01-13T01:34:53.044Z,4.20
2019-01-13T01:37:23.451Z,4.20
2019-01-13T01:39:53.925Z,4.20
2019-01-13T01:42:24.224Z,4.10
2019-01-13T01:44:54.733Z,4.20
2019-01-13T01:47:25.217Z,4.20
2019-01-13T01:49:55.516Z,4.20
2019-01-13T01:52:25.819Z,4.20
2019-01-13T01:54:56.246Z,4.30
2019-01-13T01:57:26.645Z,4.30
2019-01-13T01:59:57.079Z,4.30
2019-01-13T02:02:27.426Z,4.30
2019-01-13T02:04:57.792Z,4.30
2019-01-13T02:07:28.152Z,4.40
2019-01-13T02:09:58.284Z,4.30
2019-01-13T02:12:28.394Z,4.30
2019-01-13T02:14:58.580Z,4.30
2019-01-13T02:17:28.839Z,4.30
2019-01-13T02:19:59.946Z,4.40
2019-01-13T02:22:30.327Z,4.40
2019-01-13T02:25:00.733Z,4.40
2019-01-13T02:27:31.117Z,4.50
2019-01-13T02:30:01.434Z,4.50
2019-01-13T02:32:31.803Z,4.60
2019-01-13T02:35:02.153Z,4.60
2019-01-13T02:37:32.638Z,4.70
2019-01-13T02:40:03.017Z,4.70
2019-01-13T02:42:33.329Z,4.70
2019-01-13T02:45:04.691Z,4.70
2019-01-13T02:47:35.015Z,4.80
2019-01-13T02:50:06.654Z,4.80
2019-01-13T02:52:37.001Z,4.80
2019-01-13T02:55:08.157Z,4.80
2019-01-13T02:57:39.215Z,4.80
2019-01-13T03:00:31.026Z,4.70
2019-01-13T03:03:01.388Z,4.70
2019-01-13T03:05:31.769Z,4.60
2019-01-13T03:08:02.130Z,4.60
2019-01-13T03:10:32.610Z,4.50
2019-01-13T03:13:03.084Z,4.50
2019-01-13T03:15:33.537Z,4.50
2019-01-13T03:18:04.046Z,4.50
2019-01-13T03:20:34.475Z,4.50
2019-01-13T03:23:04.900Z,4.50
2019-01-13T03:25:35.287Z,4.40
2019-01-13T03:28:05.633Z,4.40
2019-01-13T03:30:38.045Z,4.50
2019-01-13T03:33:08.495Z,4.50
2019-01-13T03:35:38.870Z,4.50
2019-01-13T03:38:09.346Z,4.60
2019-01-13T03:40:39.884Z,4.60
2019-01-13T03:43:11.321Z,4.70
2019-01-13T03:45:41.733Z,4.70
2019-01-13T03:48:12.089Z,4.70
2019-01-13T03:50:42.506Z,4.70
2019-01-13T03:53:12.895Z,4.70
2019-01-13T03:55:43.245Z,4.70
2019-01-13T03:58:13.547Z,4.80
2019-01-13T04:00:43.910Z,4.70
2019-01-13T04:03:14.224Z,4.70
2019-01-13T04:05:44.574Z,4.80
2019-01-13T04:08:14.977Z,4.80
2019-01-13T04:10:45.222Z,4.90
2019-01-13T04:13:15.529Z,4.90
2019-01-13T04:16:00.514Z,5.00
2019-01-13T04:18:30.998Z,5.00
2019-01-13T04:21:01.485Z,5.00
2019-01-13T04:23:31.861Z,5.00
2019-01-13T04:26:02.217Z,5.10
2019-01-13T04:28:32.766Z,5.10
2019-01-13T04:31:03.296Z,5.10
2019-01-13T04:33:33.455Z,5.10
2019-01-13T04:36:03.918Z,5.20
2019-01-13T04:38:34.439Z,5.20
2019-01-13T04:41:04.825Z,5.20
2019-01-13T04:43:35.193Z,5.20
2019-01-13T04:46:05.855Z,5.30
2019-01-13T04:48:36.305Z,5.30
2019-01-13T04:51:06.840Z,5.30
2019-01-13T04:53:37.291Z,5.30
2019-01-13T04:56:07.649Z,5.30
2019-01-13T04:58:37.887Z,5.30
2019-01-13T05:01:08.387Z,5.30
2019-01-13T05:03:38.789Z,5.30
2019-01-13T05:06:09.019Z,5.30
2019-01-13T05:08:39.368Z,5.30
2019-01-13T05:11:09.716Z,5.30
2019-01-13T05:13:40.144Z,5.40
2019-01-13T05:16:10.644Z,5.40
2019-01-13T05:18:40.985Z,5.40
2019-01-13T05:21:11.301Z,5.40
2019-01-13T05:23:41.714Z,5.40
2019-01-13T05:26:12.045Z,5.40
2019-01-13T05:28:42.290Z,5.40
2019-01-13T05:31:20.435Z,5.40
2019-01-13T05:33:50.791Z,5.40
2019-01-13T05:36:21.130Z,5.50
2019-01-13T05:38:51.558Z,5.40
2019-01-13T05:41:22.072Z,5.40
2019-01-13T05:43:52.521Z,5.50
2019-01-13T05:46:23.054Z,5.50
2019-01-13T05:48:53.500Z,5.50
2019-01-13T05:51:23.883Z,5.50
2019-01-13T05:53:54.233Z,5.50
2019-01-13T05:56:24.650Z,5.50
2019-01-13T05:58:55.167Z,5.50
2019-01-13T06:01:25.599Z,5.60
2019-01-13T06:03:55.946Z,5.50
2019-01-13T06:06:26.299Z,5.50
2019-01-13T06:08:56.622Z,5.50
2019-01-13T06:11:26.957Z,5.50
2019-01-13T06:13:57.230Z,5.50
2019-01-13T06:16:27.661Z,5.50
2019-01-13T06:18:58.027Z,5.50
2019-01-13T06:21:28.414Z,5.60
2019-01-13T06:23:58.737Z,5.60
2019-01-13T06:26:29.052Z,5.50
2019-01-13T06:28:59.664Z,5.50
2019-01-13T06:31:29.987Z,5.50
2019-01-13T06:34:00.160Z,5.50
2019-01-13T06:36:30.460Z,5.50
2019-01-13T06:39:00.729Z,5.50
2019-01-13T06:41:31.064Z,5.50
2019-01-13T06:44:01.438Z,5.50
2019-01-13T06:46:31.688Z,5.40
2019-01-13T06:49:02.261Z,5.40
2019-01-13T06:51:32.623Z,5.40
2019-01-13T06:54:02.902Z,5.30
2019-01-13T06:56:33.438Z,5.30
2019-01-13T06:59:03.881Z,5.30
2019-01-13T07:01:34.301Z,5.30
2019-01-13T07:04:04.820Z,5.30
2019-01-13T07:06:35.085Z,5.30
2019-01-13T07:09:09.025Z,5.30
2019-01-13T07:11:39.378Z,5.30
2019-01-13T07:14:09.829Z,5.30
2019-01-13T07:16:40.222Z,5.30
2019-01-13T07:19:10.689Z,5.30
2019-01-13T07:21:41.064Z,5.30
2019-01-13T07:24:11.444Z,5.30
2019-01-13T07:26:41.891Z,5.20
2019-01-13T07:29:12.345Z,5.20
2019-01-13T07:31:42.963Z,5.20
2019-01-13T07:34:13.392Z,5.10
2019-01-13T07:36:43.756Z,5.10
2019-01-13T07:39:14.289Z,5.10
2019-01-13T07:41:44.696Z,5.10
2019-01-13T07:44:15.154Z,5.10
2019-01-13T07:46:45.575Z,5.00
2019-01-13T07:49:16.079Z,5.00
2019-01-13T07:51:46.391Z,5.00
2019-01-13T07:54:16.750Z,5.00
2019-01-13T07:56:47.041Z,5.00
2019-01-13T07:59:17.545Z,4.90
2019-01-13T08:01:47.956Z,4.90
2019-01-13T08:04:18.488Z,4.80
2019-01-13T08:06:50.199Z,4.80
2019-01-13T08:09:20.802Z,4.80
2019-01-13T08:11:51.138Z,4.80
2019-01-13T08:14:21.635Z,4.80
2019-01-13T08:16:51.892Z,4.70
2019-01-13T08:19:22.316Z,4.70
2019-01-13T08:21:52.688Z,4.70
2019-01-13T08:24:23.056Z,4.70
2019-01-13T08:26:53.420Z,4.70
2019-01-13T08:29:23.982Z,4.70
2019-01-13T08:31:54.322Z,4.80
2019-01-13T08:34:24.677Z,4.70
2019-01-13T08:36:55.113Z,4.70
2019-01-13T08:39:25.616Z,4.70
2019-01-13T08:41:55.780Z,4.70
2019-01-13T08:44:25.980Z,4.70
2019-01-13T08:46:56.302Z,4.70
2019-01-13T08:49:26.869Z,4.70
2019-01-13T08:51:57.256Z,4.90
2019-01-13T08:54:27.660Z,4.80
2019-01-13T08:56:58.037Z,4.70
2019-01-13T08:59:28.831Z,4.70
2019-01-13T09:01:59.248Z,4.90
2019-01-13T09:04:29.593Z,4.90
2019-01-13T09:07:00.040Z,4.80
2019-01-13T09:09:30.571Z,4.70
2019-01-13T09:12:01.000Z,4.60
2019-01-13T09:14:31.402Z,4.60
2019-01-13T09:17:01.818Z,4.50
2019-01-13T09:19:32.292Z,4.50
2019-01-13T09:22:02.758Z,4.50
2019-01-13T09:24:33.253Z,4.50
2019-01-13T09:27:03.697Z,4.50
2019-01-13T09:29:34.138Z,4.50
2019-01-13T09:32:04.676Z,4.40
2019-01-13T09:34:35.511Z,4.40
2019-01-13T09:37:06.023Z,4.30
2019-01-13T09:39:36.489Z,4.40
2019-01-13T09:42:07.165Z,4.40
2019-01-13T09:44:37.737Z,4.40
2019-01-13T09:47:07.965Z,4.40
2019-01-13T09:49:38.325Z,4.40
2019-01-13T09:52:08.832Z,4.40
2019-01-13T09:54:39.308Z,4.30
2019-01-13T09:57:09.720Z,4.30
2019-01-13T09:59:40.145Z,4.30
2019-01-13T10:02:10.651Z,4.30
2019-01-13T10:04:40.986Z,4.30
2019-01-13T10:07:11.286Z,4.30
2019-01-13T10:09:41.611Z,4.20
2019-01-13T10:12:11.870Z,4.30
2019-01-13T10:14:42.166Z,4.30
2019-01-13T10:17:12.721Z,4.40
2019-01-13T10:19:43.623Z,4.30
2019-01-13T10:22:15.780Z,4.40
2019-01-13T10:24:46.116Z,4.40
2019-01-13T10:27:16.822Z,4.30
2019-01-13T10:29:47.298Z,4.30
2019-01-13T10:32:17.847Z,4.20
2019-01-13T10:34:48.135Z,4.20
2019-01-13T10:37:18.665Z,4.20
2019-01-13T10:39:48.997Z,4.30
2019-01-13T10:42:19.444Z,4.30
2019-01-13T10:44:49.738Z,4.30
2019-01-13T10:47:20.294Z,4.30
2019-01-13T10:49:50.733Z,4.20
2019-01-13T10:52:21.160Z,4.30
2019-01-13T10:54:51.600Z,4.30
2019-01-13T10:57:22.034Z,4.20
2019-01-13T10:59:52.431Z,4.20
2019-01-13T11:02:22.935Z,4.20
2019-01-13T11:04:53.468Z,4.20
2019-01-13T11:07:23.936Z,4.20
2019-01-13T11:09:55.359Z,4.20
2019-01-13T11:12:25.688Z,4.30
2019-01-13T11:14:56.008Z,4.30
2019-01-13T11:17:26.536Z,4.30
2019-01-13T11:19:56.764Z,4.40
2019-01-13T11:22:27.130Z,4.40
2019-01-13T11:24:57.457Z,4.40
2019-01-13T11:27:27.751Z,4.40
2019-01-13T11:29:58.101Z,4.40
2019-01-13T11:32:28.462Z,4.40
2019-01-13T11:35:05.272Z,4.40
2019-01-13T11:37:35.835Z,4.40
2019-01-13T11:40:09.603Z,4.30
2019-01-13T11:42:40.040Z,4.30
2019-01-13T11:45:11.860Z,4.30
2019-01-13T11:47:42.322Z,4.30
2019-01-13T11:50:16.228Z,4.40
2019-01-13T11:52:46.845Z,4.30
2019-01-13T11:55:17.796Z,4.40
2019-01-13T11:57:48.430Z,4.40
2019-01-13T12:00:40.567Z,4.40
2019-01-13T12:03:16.743Z,4.40
2019-01-13T12:05:43.169Z,4.40
2019-01-13T12:08:13.611Z,4.40
2019-01-13T12:10:44.070Z,4.40
2019-01-13T12:13:14.663Z,4.40
2019-01-13T12:15:46.090Z,4.40
2019-01-13T12:18:16.542Z,4.40
2019-01-13T12:20:47.085Z,4.60
2019-01-13T12:23:17.475Z,4.60
2019-01-13T12:25:52.528Z,4.70
2019-01-13T12:28:22.344Z,4.60
2019-01-13T12:30:54.880Z,4.70
2019-01-13T12:33:26.905Z,4.70
2019-01-13T12:35:57.288Z,4.70
2019-01-13T12:38:27.807Z,4.70
2019-01-13T12:40:58.189Z,4.80
2019-01-13T12:43:28.644Z,4.80
2019-01-13T12:46:00.058Z,4.80
2019-01-13T12:48:30.538Z,4.90
2019-01-13T12:51:06.161Z,5.00
2019-01-13T12:53:36.383Z,5.00
2019-01-13T12:56:06.802Z,5.10
2019-01-13T12:58:37.215Z,5.10
2019-01-13T13:01:07.635Z,5.20
2019-01-13T13:03:38.027Z,5.20
2019-01-13T13:06:08.425Z,5.20
2019-01-13T13:08:39.911Z,5.30
2019-01-13T13:11:10.360Z,5.30
2019-01-13T13:13:40.889Z,5.30
2019-01-13T13:16:11.305Z,5.30
2019-01-13T13:18:42.525Z,5.30
2019-01-13T13:21:12.940Z,5.50
2019-01-13T13:23:44.985Z,5.70
2019-01-13T13:26:15.452Z,5.90
2019-01-13T13:28:46.333Z,6.20
2019-01-13T13:31:16.985Z,6.40
2019-01-13T13:33:47.349Z,6.60
2019-01-13T13:36:17.668Z,6.70
2019-01-13T13:38:48.163Z,6.70
2019-01-13T13:41:18.509Z,6.70
2019-01-13T13:43:46.675Z,6.80
2019-01-13T13:46:17.285Z,6.80
2019-01-13T13:48:47.772Z,6.90
2019-01-13T13:51:19.138Z,6.90
2019-01-13T13:53:49.514Z,6.90
2019-01-13T13:56:19.948Z,7.00
2019-01-13T13:58:50.415Z,7.10
2019-01-13T14:01:20.811Z,7.10
2019-01-13T14:03:52.437Z,7.10
2019-01-13T14:06:23.018Z,7.20
2019-01-13T14:08:53.610Z,7.30
2019-01-13T14:11:24.015Z,7.30
2019-01-13T14:13:54.766Z,7.40
2019-01-13T14:16:25.213Z,7.50
2019-01-13T14:18:56.036Z,7.60
2019-01-13T14:21:26.533Z,7.70
2019-01-13T14:23:57.283Z,7.70
2019-01-13T14:26:27.796Z,7.70
2019-01-13T14:28:58.330Z,7.80
2019-01-13T14:31:28.758Z,7.80
2019-01-13T14:33:59.224Z,7.80
2019-01-13T14:36:29.675Z,7.80
2019-01-13T14:39:00.114Z,7.90
2019-01-13T14:41:30.469Z,7.80
2019-01-13T14:44:01.156Z,7.90
2019-01-13T14:46:32.038Z,7.90
2019-01-13T14:49:02.550Z,7.90
2019-01-13T14:51:33.912Z,7.80
2019-01-13T14:54:04.515Z,7.80
2019-01-13T14:56:34.828Z,7.80
2019-01-13T14:59:05.477Z,7.80
2019-01-13T15:01:35.817Z,7.80
2019-01-13T15:04:06.346Z,7.70
2019-01-13T15:06:36.770Z,7.80
2019-01-13T15:09:10.787Z,7.80
2019-01-13T15:11:41.549Z,7.70
2019-01-13T15:14:11.898Z,7.70
2019-01-13T15:16:42.353Z,7.70
2019-01-13T15:19:12.809Z,7.70
2019-01-13T15:21:43.136Z,7.70
2019-01-13T15:24:13.431Z,7.60
2019-01-13T15:26:44.933Z,7.60
2019-01-13T15:29:15.369Z,7.70
2019-01-13T15:31:45.734Z,7.70
2019-01-13T15:34:16.073Z,7.70
2019-01-13T15:36:46.502Z,7.70
2019-01-13T15:39:16.978Z,7.70
2019-01-13T15:41:47.282Z,7.70
2019-01-13T15:44:17.697Z,7.80
2019-01-13T15:46:48.160Z,7.70
2019-01-13T15:49:18.685Z,7.70
2019-01-13T15:51:49.088Z,7.70
2019-01-13T15:54:19.528Z,7.70
2019-01-13T15:56:49.979Z,7.60
2019-01-13T15:59:20.486Z,7.60
2019-01-13T16:01:50.935Z,7.60
2019-01-13T16:04:21.368Z,7.60
2019-01-13T16:06:51.867Z,7.70
2019-01-13T16:09:22.307Z,7.70
2019-01-13T16:11:52.744Z,7.60
2019-01-13T16:14:23.126Z,7.70
2019-01-13T16:16:53.734Z,7.60
2019-01-13T16:19:24.361Z,7.60
2019-01-13T16:21:54.866Z,7.60
2019-01-13T16:24:25.181Z,7.60
2019-01-13T16:26:55.680Z,7.60
2019-01-13T16:29:25.956Z,7.70
2019-01-13T16:31:56.548Z,7.60
2019-01-13T16:34:26.945Z,7.70
2019-01-13T16:36:57.464Z,7.70
2019-01-13T16:39:27.839Z,7.70
2019-01-13T16:41:58.322Z,7.70
2019-01-13T16:44:29.805Z,7.70
2019-01-13T16:47:00.960Z,7.70
2019-01-13T16:49:31.555Z,7.70
2019-01-13T16:52:01.906Z,7.70
2019-01-13T16:54:32.545Z,7.80
2019-01-13T16:57:03.064Z,7.80
2019-01-13T16:59:33.296Z,7.80
2019-01-13T17:02:03.483Z,7.80
2019-01-13T17:04:33.838Z,7.80
2019-01-13T17:07:04.671Z,7.70
2019-01-13T17:09:36.004Z,7.70
2019-01-13T17:12:06.445Z,7.80
2019-01-13T17:14:36.749Z,7.70
2019-01-13T17:17:07.082Z,7.80
2019-01-13T17:19:37.519Z,7.80
2019-01-13T17:22:07.887Z,7.60
2019-01-13T17:24:38.096Z,7.70
2019-01-13T17:27:09.683Z,7.60
2019-01-13T17:29:40.084Z,7.70
2019-01-13T17:32:10.608Z,7.70
2019-01-13T17:34:40.987Z,7.70
2019-01-13T17:37:11.471Z,7.70
2019-01-13T17:39:43.345Z,7.70
2019-01-13T17:42:14.843Z,7.80
2019-01-13T17:44:45.493Z,7.80
2019-01-13T17:47:15.964Z,7.70
2019-01-13T17:49:46.278Z,7.70
2019-01-13T17:52:16.776Z,7.70
2019-01-13T17:54:47.241Z,7.70
2019-01-13T17:57:17.711Z,7.70
2019-01-13T17:59:48.214Z,7.70
2019-01-13T18:02:19.478Z,7.70
2019-01-13T18:04:50.031Z,7.70
2019-01-13T18:07:20.489Z,7.70
2019-01-13T18:09:50.856Z,7.70
2019-01-13T18:12:21.306Z,7.70
2019-01-13T18:14:54.846Z,7.70
2019-01-13T18:17:26.597Z,7.80
2019-01-13T18:19:57.070Z,7.80
2019-01-13T18:22:27.540Z,7.90
2019-01-13T18:24:58.068Z,7.90
2019-01-13T18:27:28.573Z,7.90
2019-01-13T18:29:58.988Z,7.90
2019-01-13T18:32:29.434Z,7.90
2019-01-13T18:34:59.721Z,8.00
2019-01-13T18:37:30.132Z,8.00
2019-01-13T18:40:00.417Z,8.00
2019-01-13T18:42:31.969Z,8.10
2019-01-13T18:45:02.573Z,8.10
2019-01-13T18:47:33.049Z,8.20
2019-01-13T18:50:03.534Z,8.20
2019-01-13T18:52:34.139Z,8.20
2019-01-13T18:55:05.637Z,8.20
2019-01-13T18:57:36.067Z,8.20
2019-01-13T19:00:11.591Z,8.20
2019-01-13T19:02:42.004Z,8.10
2019-01-13T19:05:14.062Z,8.10
2019-01-13T19:07:44.507Z,8.10
2019-01-13T19:10:26.183Z,8.10
2019-01-13T19:13:14.646Z,8.20
2019-01-13T19:15:47.151Z,8.20
2019-01-13T19:18:17.727Z,8.20
2019-01-13T19:20:48.274Z,8.20
2019-01-13T19:23:23.270Z,8.30
2019-01-13T19:25:53.656Z,8.20
2019-01-13T19:28:24.251Z,8.20
2019-01-13T19:30:54.498Z,8.30
2019-01-13T19:33:24.966Z,8.30
2019-01-13T19:35:57.496Z,8.30
2019-01-13T19:38:28.122Z,8.30
2019-01-13T19:40:58.638Z,8.30
2019-01-13T19:43:29.482Z,8.40
2019-01-13T19:46:00.053Z,8.40
2019-01-13T19:48:30.557Z,8.50
2019-01-13T19:51:01.143Z,8.50
2019-01-13T19:53:32.566Z,8.50
2019-01-13T19:56:03.087Z,8.50
2019-01-13T19:58:33.786Z,8.50
2019-01-13T20:01:04.332Z,8.50
2019-01-13T20:03:34.883Z,8.50
2019-01-13T20:06:05.658Z,8.50
2019-01-13T20:08:37.182Z,8.50
2019-01-13T20:11:07.693Z,8.50
2019-01-13T20:13:38.196Z,8.50
2019-01-13T20:16:08.633Z,8.40
2019-01-13T20:18:39.115Z,8.40
2019-01-13T20:21:09.670Z,8.30
2019-01-13T20:23:40.110Z,8.10
2019-01-13T20:26:11.423Z,8.10
2019-01-13T20:28:41.890Z,8.00
2019-01-13T20:31:12.236Z,7.90
2019-01-13T20:33:43.067Z,7.90
2019-01-13T20:36:13.387Z,7.80
2019-01-13T20:38:43.738Z,7.80
2019-01-13T20:41:14.233Z,7.70
2019-01-13T20:43:44.686Z,7.70
2019-01-13T20:46:15.252Z,7.70
2019-01-13T20:48:45.727Z,7.70
2019-01-13T20:51:16.268Z,7.70
2019-01-13T20:53:46.649Z,7.70
2019-01-13T20:56:18.163Z,7.70
2019-01-13T20:58:48.537Z,7.70
2019-01-13T21:01:18.800Z,7.70
2019-01-13T21:03:49.263Z,7.80
2019-01-13T21:06:22.434Z,7.80
2019-01-13T21:08:52.911Z,7.80
2019-01-13T21:11:23.488Z,7.80
2019-01-13T21:13:53.930Z,7.80
2019-01-13T21:16:24.436Z,7.80
2019-01-13T21:18:54.983Z,7.70
2019-01-13T21:21:31.294Z,7.70
2019-01-13T21:24:01.702Z,7.60
2019-01-13T21:29:07.235Z,7.60
2019-01-13T21:31:37.735Z,7.60
2019-01-13T21:34:08.273Z,7.50
2019-01-13T21:36:38.695Z,7.50
2019-01-13T21:39:10.509Z,7.50
2019-01-13T21:41:41.010Z,7.40
2019-01-13T21:44:11.406Z,7.30
2019-01-13T21:46:41.891Z,7.40
2019-01-13T21:49:12.393Z,7.40
2019-01-13T21:51:42.822Z,7.40
2019-01-13T21:54:13.258Z,7.40
2019-01-13T21:56:43.802Z,7.40
2019-01-13T21:59:14.172Z,7.50
2019-01-13T22:01:44.680Z,7.50
2019-01-13T22:04:15.188Z,7.60
2019-01-13T22:06:45.702Z,7.60
2019-01-13T22:09:16.315Z,7.60
2019-01-13T22:11:46.791Z,7.70
2019-01-13T22:14:17.186Z,7.70
2019-01-13T22:16:47.581Z,7.70
2019-01-13T22:19:18.044Z,7.70
2019-01-13T22:21:48.442Z,7.70
2019-01-13T22:24:18.844Z,7.80
2019-01-13T22:26:49.207Z,7.80
2019-01-13T22:29:19.548Z,7.80
2019-01-13T22:31:49.922Z,7.80
2019-01-13T22:34:20.436Z,7.80
2019-01-13T22:36:50.855Z,7.80
2019-01-13T22:39:21.603Z,7.80
2019-01-13T22:41:51.942Z,7.70
2019-01-13T22:44:22.226Z,7.80
2019-01-13T22:46:52.616Z,7.70
2019-01-13T22:49:23.121Z,7.60
2019-01-13T22:51:53.465Z,7.60
2019-01-13T22:54:23.975Z,7.60
2019-01-13T22:56:54.381Z,7.50
2019-01-13T22:59:24.958Z,7.50
2019-01-13T23:01:55.371Z,7.40
2019-01-13T23:04:25.794Z,7.40
2019-01-13T23:06:56.160Z,7.40
2019-01-13T23:09:26.622Z,7.40
2019-01-13T23:11:57.095Z,7.50
2019-01-13T23:14:27.346Z,7.50
2019-01-13T23:16:57.760Z,7.50
2019-01-13T23:19:28.123Z,7.50
2019-01-13T23:21:58.534Z,7.50
2019-01-13T23:24:28.912Z,7.40
2019-01-13T23:26:59.283Z,7.40
2019-01-13T23:29:29.497Z,7.30
2019-01-13T23:31:59.889Z,7.30
2019-01-13T23:34:30.248Z,7.30
2019-01-13T23:37:00.635Z,7.10
2019-01-13T23:39:31.063Z,6.30
2019-01-13T23:42:01.319Z,5.70
2019-01-13T23:44:31.626Z,5.40
2019-01-13T23:47:02.052Z,5.40
2019-01-13T23:49:32.476Z,5.40
2019-01-13T23:52:02.833Z,5.40
2019-01-13T23:54:33.267Z,5.50
2019-01-13T23:57:03.688Z,5.60
2019-01-13T23:59:33.996Z,5.70
